sensor_id;sensor_type;location;lat;lon;timestamp;P1;durP1;ratioP1;P2;durP2;ratioP2
4462;SDS011;2244;50.200;8.220;2023-04-25T00:00:33;19.23;;;12.07;;
4462;SDS011;2244;50.200;8.220;2023-04-25T00:03:01;17.73;;;9.67;;
4462;SDS011;2244;50.200;8.220;2023-04-25T00:05:28;21.60;;;11.73;;
4462;SDS011;2244;50.200;8.220;2023-04-25T00:07:57;18.43;;;10.80;;
4462;SDS011;2244;50.200;8.220;2023-04-25T00:10:24;23.13;;;12.60;;
4462;SDS011;2244;50.200;8.220;2023-04-25T00:12:52;23.00;;;12.77;;
4462;SDS011;2244;50.200;8.220;2023-04-25T00:15:19;22.73;;;13.60;;
4462;SDS011;2244;50.200;8.220;2023-04-25T00:17:47;24.90;;;13.67;;
4462;SDS011;2244;50.200;8.220;2023-04-25T00:20:14;19.80;;;12.77;;
4462;SDS011;2244;50.200;8.220;2023-04-25T00:22:42;18.53;;;12.03;;
4462;SDS011;2244;50.200;8.220;2023-04-25T00:25:10;24.30;;;12.67;;
4462;SDS011;2244;50.200;8.220;2023-04-25T00:27:37;19.73;;;11.60;;
4462;SDS011;2244;50.200;8.220;2023-04-25T00:30:05;19.87;;;11.33;;
4462;SDS011;2244;50.200;8.220;2023-04-25T00:32:35;20.70;;;12.20;;
4462;SDS011;2244;50.200;8.220;2023-04-25T00:35:03;18.70;;;10.90;;
4462;SDS011;2244;50.200;8.220;2023-04-25T00:37:34;20.03;;;12.03;;
4462;SDS011;2244;50.200;8.220;2023-04-25T00:40:02;18.27;;;10.20;;
4462;SDS011;2244;50.200;8.220;2023-04-25T00:42:32;19.97;;;11.53;;
4462;SDS011;2244;50.200;8.220;2023-04-25T00:44:59;21.23;;;12.33;;
4462;SDS011;2244;50.200;8.220;2023-04-25T00:47:27;17.63;;;11.60;;
4462;SDS011;2244;50.200;8.220;2023-04-25T00:49:55;18.23;;;10.57;;
4462;SDS011;2244;50.200;8.220;2023-04-25T00:52:23;19.30;;;11.37;;
4462;SDS011;2244;50.200;8.220;2023-04-25T00:54:50;18.73;;;11.00;;
4462;SDS011;2244;50.200;8.220;2023-04-25T00:57:18;15.73;;;8.93;;
4462;SDS011;2244;50.200;8.220;2023-04-25T00:59:45;16.40;;;8.67;;
4462;SDS011;2244;50.200;8.220;2023-04-25T01:02:13;19.07;;;10.80;;
4462;SDS011;2244;50.200;8.220;2023-04-25T01:04:40;17.20;;;10.10;;
4462;SDS011;2244;50.200;8.220;2023-04-25T01:07:08;18.97;;;11.30;;
4462;SDS011;2244;50.200;8.220;2023-04-25T01:09:36;19.73;;;12.30;;
4462;SDS011;2244;50.200;8.220;2023-04-25T01:12:04;19.10;;;12.03;;
4462;SDS011;2244;50.200;8.220;2023-04-25T01:14:31;23.30;;;13.20;;
4462;SDS011;2244;50.200;8.220;2023-04-25T01:16:59;20.43;;;11.77;;
4462;SDS011;2244;50.200;8.220;2023-04-25T01:19:26;22.57;;;12.30;;
4462;SDS011;2244;50.200;8.220;2023-04-25T01:21:54;25.57;;;13.83;;
4462;SDS011;2244;50.200;8.220;2023-04-25T01:24:21;26.30;;;14.60;;
4462;SDS011;2244;50.200;8.220;2023-04-25T01:26:49;22.90;;;14.23;;
4462;SDS011;2244;50.200;8.220;2023-04-25T01:29:17;24.67;;;13.73;;
4462;SDS011;2244;50.200;8.220;2023-04-25T01:31:44;22.80;;;14.33;;
4462;SDS011;2244;50.200;8.220;2023-04-25T01:34:12;23.60;;;13.97;;
4462;SDS011;2244;50.200;8.220;2023-04-25T01:36:40;23.77;;;14.97;;
4462;SDS011;2244;50.200;8.220;2023-04-25T01:39:07;24.77;;;14.20;;
4462;SDS011;2244;50.200;8.220;2023-04-25T01:41:34;24.80;;;14.43;;
4462;SDS011;2244;50.200;8.220;2023-04-25T01:44:02;23.03;;;14.00;;
4462;SDS011;2244;50.200;8.220;2023-04-25T01:46:36;23.00;;;13.27;;
4462;SDS011;2244;50.200;8.220;2023-04-25T01:49:03;24.07;;;15.23;;
4462;SDS011;2244;50.200;8.220;2023-04-25T01:51:31;25.63;;;14.83;;
4462;SDS011;2244;50.200;8.220;2023-04-25T01:53:58;26.63;;;15.70;;
4462;SDS011;2244;50.200;8.220;2023-04-25T01:56:29;29.73;;;15.40;;
4462;SDS011;2244;50.200;8.220;2023-04-25T01:58:55;23.67;;;15.03;;
4462;SDS011;2244;50.200;8.220;2023-04-25T02:01:23;23.93;;;13.50;;
4462;SDS011;2244;50.200;8.220;2023-04-25T02:03:50;25.27;;;15.93;;
4462;SDS011;2244;50.200;8.220;2023-04-25T02:06:18;25.20;;;15.30;;
4462;SDS011;2244;50.200;8.220;2023-04-25T02:08:46;23.23;;;14.07;;
4462;SDS011;2244;50.200;8.220;2023-04-25T02:11:13;26.37;;;13.77;;
4462;SDS011;2244;50.200;8.220;2023-04-25T02:13:40;22.57;;;14.30;;
4462;SDS011;2244;50.200;8.220;2023-04-25T02:16:08;21.40;;;13.30;;
4462;SDS011;2244;50.200;8.220;2023-04-25T02:18:36;26.90;;;12.73;;
4462;SDS011;2244;50.200;8.220;2023-04-25T02:21:03;22.13;;;12.47;;
4462;SDS011;2244;50.200;8.220;2023-04-25T02:23:32;22.67;;;11.90;;
4462;SDS011;2244;50.200;8.220;2023-04-25T02:25:59;22.23;;;12.00;;
4462;SDS011;2244;50.200;8.220;2023-04-25T02:28:26;23.37;;;11.30;;
4462;SDS011;2244;50.200;8.220;2023-04-25T02:30:54;22.97;;;12.20;;
4462;SDS011;2244;50.200;8.220;2023-04-25T02:33:21;22.47;;;11.80;;
4462;SDS011;2244;50.200;8.220;2023-04-25T02:35:49;22.20;;;10.70;;
4462;SDS011;2244;50.200;8.220;2023-04-25T02:38:16;23.17;;;10.97;;
4462;SDS011;2244;50.200;8.220;2023-04-25T02:40:44;21.80;;;11.67;;
4462;SDS011;2244;50.200;8.220;2023-04-25T02:43:11;22.70;;;11.70;;
4462;SDS011;2244;50.200;8.220;2023-04-25T02:45:38;23.00;;;12.47;;
4462;SDS011;2244;50.200;8.220;2023-04-25T02:48:06;24.30;;;12.83;;
4462;SDS011;2244;50.200;8.220;2023-04-25T02:50:33;22.97;;;11.50;;
4462;SDS011;2244;50.200;8.220;2023-04-25T02:53:01;23.83;;;10.73;;
4462;SDS011;2244;50.200;8.220;2023-04-25T02:55:28;26.57;;;13.20;;
4462;SDS011;2244;50.200;8.220;2023-04-25T02:57:56;25.57;;;11.90;;
4462;SDS011;2244;50.200;8.220;2023-04-25T03:00:23;24.10;;;10.97;;
4462;SDS011;2244;50.200;8.220;2023-04-25T03:02:50;22.77;;;11.20;;
4462;SDS011;2244;50.200;8.220;2023-04-25T03:05:18;23.70;;;11.17;;
4462;SDS011;2244;50.200;8.220;2023-04-25T03:07:45;22.77;;;10.40;;
4462;SDS011;2244;50.200;8.220;2023-04-25T03:10:13;22.57;;;9.93;;
4462;SDS011;2244;50.200;8.220;2023-04-25T03:12:40;25.70;;;10.40;;
4462;SDS011;2244;50.200;8.220;2023-04-25T03:15:08;20.00;;;9.60;;
4462;SDS011;2244;50.200;8.220;2023-04-25T03:17:35;29.40;;;10.40;;
4462;SDS011;2244;50.200;8.220;2023-04-25T03:20:03;23.97;;;9.90;;
4462;SDS011;2244;50.200;8.220;2023-04-25T03:22:31;23.73;;;10.53;;
4462;SDS011;2244;50.200;8.220;2023-04-25T03:24:58;28.67;;;10.77;;
4462;SDS011;2244;50.200;8.220;2023-04-25T03:27:26;23.83;;;10.30;;
4462;SDS011;2244;50.200;8.220;2023-04-25T03:29:53;25.03;;;10.17;;
4462;SDS011;2244;50.200;8.220;2023-04-25T03:32:21;23.37;;;10.97;;
4462;SDS011;2244;50.200;8.220;2023-04-25T03:34:48;22.80;;;10.30;;
4462;SDS011;2244;50.200;8.220;2023-04-25T03:37:16;22.47;;;10.70;;
4462;SDS011;2244;50.200;8.220;2023-04-25T03:39:43;22.27;;;10.30;;
4462;SDS011;2244;50.200;8.220;2023-04-25T03:42:11;22.30;;;10.43;;
4462;SDS011;2244;50.200;8.220;2023-04-25T03:44:38;22.67;;;10.33;;
4462;SDS011;2244;50.200;8.220;2023-04-25T03:47:06;20.80;;;10.10;;
4462;SDS011;2244;50.200;8.220;2023-04-25T03:49:34;24.30;;;10.57;;
4462;SDS011;2244;50.200;8.220;2023-04-25T03:52:02;28.60;;;10.27;;
4462;SDS011;2244;50.200;8.220;2023-04-25T03:54:30;19.23;;;9.00;;
4462;SDS011;2244;50.200;8.220;2023-04-25T03:56:57;21.93;;;9.60;;
4462;SDS011;2244;50.200;8.220;2023-04-25T03:59:24;19.90;;;8.00;;
4462;SDS011;2244;50.200;8.220;2023-04-25T04:01:52;21.93;;;8.70;;
4462;SDS011;2244;50.200;8.220;2023-04-25T04:04:19;20.10;;;8.80;;
4462;SDS011;2244;50.200;8.220;2023-04-25T04:06:47;19.60;;;7.60;;
4462;SDS011;2244;50.200;8.220;2023-04-25T04:09:15;23.70;;;10.03;;
4462;SDS011;2244;50.200;8.220;2023-04-25T04:11:42;19.10;;;7.90;;
4462;SDS011;2244;50.200;8.220;2023-04-25T04:14:10;19.90;;;8.70;;
4462;SDS011;2244;50.200;8.220;2023-04-25T04:16:37;25.43;;;8.77;;
4462;SDS011;2244;50.200;8.220;2023-04-25T04:19:04;26.80;;;9.33;;
4462;SDS011;2244;50.200;8.220;2023-04-25T04:21:32;24.43;;;8.73;;
4462;SDS011;2244;50.200;8.220;2023-04-25T04:23:59;19.33;;;8.43;;
4462;SDS011;2244;50.200;8.220;2023-04-25T04:26:27;19.30;;;8.50;;
4462;SDS011;2244;50.200;8.220;2023-04-25T04:28:54;21.77;;;8.97;;
4462;SDS011;2244;50.200;8.220;2023-04-25T04:31:22;27.47;;;8.20;;
4462;SDS011;2244;50.200;8.220;2023-04-25T04:33:50;22.50;;;8.40;;
4462;SDS011;2244;50.200;8.220;2023-04-25T04:36:18;28.63;;;9.37;;
4462;SDS011;2244;50.200;8.220;2023-04-25T04:38:49;22.07;;;9.33;;
4462;SDS011;2244;50.200;8.220;2023-04-25T04:41:16;18.60;;;7.70;;
4462;SDS011;2244;50.200;8.220;2023-04-25T04:43:46;24.03;;;9.50;;
4462;SDS011;2244;50.200;8.220;2023-04-25T04:46:14;25.50;;;8.77;;
4462;SDS011;2244;50.200;8.220;2023-04-25T04:48:42;27.17;;;9.77;;
4462;SDS011;2244;50.200;8.220;2023-04-25T04:51:10;23.70;;;9.00;;
4462;SDS011;2244;50.200;8.220;2023-04-25T04:53:38;21.33;;;7.47;;
4462;SDS011;2244;50.200;8.220;2023-04-25T04:56:05;28.77;;;8.83;;
4462;SDS011;2244;50.200;8.220;2023-04-25T04:58:33;22.93;;;10.07;;
4462;SDS011;2244;50.200;8.220;2023-04-25T05:01:02;33.40;;;8.70;;
4462;SDS011;2244;50.200;8.220;2023-04-25T05:03:29;21.60;;;8.97;;
4462;SDS011;2244;50.200;8.220;2023-04-25T05:05:57;26.83;;;8.17;;
4462;SDS011;2244;50.200;8.220;2023-04-25T05:08:24;24.17;;;8.57;;
4462;SDS011;2244;50.200;8.220;2023-04-25T05:10:52;27.43;;;10.17;;
4462;SDS011;2244;50.200;8.220;2023-04-25T05:13:19;25.00;;;9.40;;
4462;SDS011;2244;50.200;8.220;2023-04-25T05:15:47;23.47;;;9.03;;
4462;SDS011;2244;50.200;8.220;2023-04-25T05:18:14;28.70;;;9.90;;
4462;SDS011;2244;50.200;8.220;2023-04-25T05:20:41;28.13;;;10.20;;
4462;SDS011;2244;50.200;8.220;2023-04-25T05:23:09;24.27;;;9.93;;
4462;SDS011;2244;50.200;8.220;2023-04-25T05:25:36;21.10;;;8.97;;
4462;SDS011;2244;50.200;8.220;2023-04-25T05:28:04;29.73;;;9.57;;
4462;SDS011;2244;50.200;8.220;2023-04-25T05:30:32;26.90;;;8.90;;
4462;SDS011;2244;50.200;8.220;2023-04-25T05:33:00;25.20;;;10.03;;
4462;SDS011;2244;50.200;8.220;2023-04-25T05:35:28;27.47;;;10.30;;
4462;SDS011;2244;50.200;8.220;2023-04-25T05:37:55;25.87;;;9.23;;
4462;SDS011;2244;50.200;8.220;2023-04-25T05:40:23;30.23;;;8.70;;
4462;SDS011;2244;50.200;8.220;2023-04-25T05:42:50;23.70;;;8.80;;
4462;SDS011;2244;50.200;8.220;2023-04-25T05:45:17;24.13;;;8.30;;
4462;SDS011;2244;50.200;8.220;2023-04-25T05:47:45;23.07;;;8.93;;
4462;SDS011;2244;50.200;8.220;2023-04-25T05:50:12;22.77;;;9.57;;
4462;SDS011;2244;50.200;8.220;2023-04-25T05:52:40;24.40;;;9.03;;
4462;SDS011;2244;50.200;8.220;2023-04-25T05:55:07;27.43;;;8.73;;
4462;SDS011;2244;50.200;8.220;2023-04-25T05:57:35;21.40;;;8.07;;
4462;SDS011;2244;50.200;8.220;2023-04-25T06:00:02;26.80;;;8.80;;
4462;SDS011;2244;50.200;8.220;2023-04-25T06:02:31;28.47;;;9.47;;
4462;SDS011;2244;50.200;8.220;2023-04-25T06:04:59;26.03;;;8.70;;
4462;SDS011;2244;50.200;8.220;2023-04-25T06:07:28;18.30;;;7.23;;
4462;SDS011;2244;50.200;8.220;2023-04-25T06:09:56;21.50;;;7.87;;
4462;SDS011;2244;50.200;8.220;2023-04-25T06:12:24;24.40;;;8.73;;
4462;SDS011;2244;50.200;8.220;2023-04-25T06:14:51;24.20;;;7.50;;
4462;SDS011;2244;50.200;8.220;2023-04-25T06:17:19;23.30;;;7.40;;
4462;SDS011;2244;50.200;8.220;2023-04-25T06:19:46;24.40;;;6.60;;
4462;SDS011;2244;50.200;8.220;2023-04-25T06:22:13;19.50;;;7.53;;
4462;SDS011;2244;50.200;8.220;2023-04-25T06:24:41;22.77;;;7.03;;
4462;SDS011;2244;50.200;8.220;2023-04-25T06:27:08;21.23;;;6.30;;
4462;SDS011;2244;50.200;8.220;2023-04-25T06:29:36;24.33;;;6.80;;
4462;SDS011;2244;50.200;8.220;2023-04-25T06:32:03;17.80;;;6.10;;
4462;SDS011;2244;50.200;8.220;2023-04-25T06:34:31;20.03;;;5.80;;
4462;SDS011;2244;50.200;8.220;2023-04-25T06:36:58;22.70;;;6.50;;
4462;SDS011;2244;50.200;8.220;2023-04-25T06:39:25;18.00;;;5.40;;
4462;SDS011;2244;50.200;8.220;2023-04-25T06:41:53;19.60;;;6.30;;
4462;SDS011;2244;50.200;8.220;2023-04-25T06:44:21;14.77;;;6.00;;
4462;SDS011;2244;50.200;8.220;2023-04-25T06:46:50;18.07;;;5.60;;
4462;SDS011;2244;50.200;8.220;2023-04-25T06:49:17;20.50;;;5.37;;
4462;SDS011;2244;50.200;8.220;2023-04-25T06:51:44;20.23;;;6.03;;
4462;SDS011;2244;50.200;8.220;2023-04-25T06:54:12;17.20;;;6.40;;
4462;SDS011;2244;50.200;8.220;2023-04-25T06:56:39;17.97;;;6.10;;
4462;SDS011;2244;50.200;8.220;2023-04-25T06:59:07;21.00;;;5.73;;
4462;SDS011;2244;50.200;8.220;2023-04-25T07:01:35;17.07;;;5.97;;
4462;SDS011;2244;50.200;8.220;2023-04-25T07:04:03;17.70;;;6.10;;
4462;SDS011;2244;50.200;8.220;2023-04-25T07:06:30;15.80;;;5.10;;
4462;SDS011;2244;50.200;8.220;2023-04-25T07:08:58;16.00;;;5.40;;
4462;SDS011;2244;50.200;8.220;2023-04-25T07:11:25;18.07;;;6.00;;
4462;SDS011;2244;50.200;8.220;2023-04-25T07:13:53;16.17;;;5.07;;
4462;SDS011;2244;50.200;8.220;2023-04-25T07:16:20;17.07;;;5.50;;
4462;SDS011;2244;50.200;8.220;2023-04-25T07:18:48;14.50;;;4.70;;
4462;SDS011;2244;50.200;8.220;2023-04-25T07:21:15;14.80;;;4.97;;
4462;SDS011;2244;50.200;8.220;2023-04-25T07:23:43;16.37;;;4.63;;
4462;SDS011;2244;50.200;8.220;2023-04-25T07:26:10;19.30;;;5.60;;
4462;SDS011;2244;50.200;8.220;2023-04-25T07:28:38;14.00;;;4.90;;
4462;SDS011;2244;50.200;8.220;2023-04-25T07:31:05;14.13;;;4.80;;
4462;SDS011;2244;50.200;8.220;2023-04-25T07:33:33;15.77;;;4.00;;
4462;SDS011;2244;50.200;8.220;2023-04-25T07:36:01;15.43;;;4.00;;
4462;SDS011;2244;50.200;8.220;2023-04-25T07:38:28;11.87;;;3.47;;
4462;SDS011;2244;50.200;8.220;2023-04-25T07:40:56;10.27;;;3.30;;
4462;SDS011;2244;50.200;8.220;2023-04-25T07:43:23;11.97;;;4.00;;
4462;SDS011;2244;50.200;8.220;2023-04-25T07:45:50;17.27;;;4.10;;
4462;SDS011;2244;50.200;8.220;2023-04-25T07:48:18;16.90;;;3.57;;
4462;SDS011;2244;50.200;8.220;2023-04-25T07:50:46;12.27;;;4.20;;
4462;SDS011;2244;50.200;8.220;2023-04-25T07:53:13;13.73;;;4.00;;
4462;SDS011;2244;50.200;8.220;2023-04-25T07:55:41;16.63;;;4.53;;
4462;SDS011;2244;50.200;8.220;2023-04-25T07:58:08;11.60;;;3.63;;
4462;SDS011;2244;50.200;8.220;2023-04-25T08:00:36;17.10;;;4.30;;
4462;SDS011;2244;50.200;8.220;2023-04-25T08:03:04;14.87;;;4.53;;
4462;SDS011;2244;50.200;8.220;2023-04-25T08:05:33;14.53;;;4.10;;
4462;SDS011;2244;50.200;8.220;2023-04-25T08:08:01;17.13;;;4.60;;
4462;SDS011;2244;50.200;8.220;2023-04-25T08:10:28;15.17;;;4.57;;
4462;SDS011;2244;50.200;8.220;2023-04-25T08:12:56;13.10;;;5.20;;
4462;SDS011;2244;50.200;8.220;2023-04-25T08:15:23;16.53;;;5.60;;
4462;SDS011;2244;50.200;8.220;2023-04-25T08:17:51;13.87;;;5.67;;
4462;SDS011;2244;50.200;8.220;2023-04-25T08:20:19;14.87;;;6.43;;
4462;SDS011;2244;50.200;8.220;2023-04-25T08:22:46;14.67;;;5.67;;
4462;SDS011;2244;50.200;8.220;2023-04-25T08:25:15;18.43;;;6.50;;
4462;SDS011;2244;50.200;8.220;2023-04-25T08:27:42;14.70;;;6.47;;
4462;SDS011;2244;50.200;8.220;2023-04-25T08:30:10;20.67;;;6.50;;
4462;SDS011;2244;50.200;8.220;2023-04-25T08:32:37;13.70;;;5.90;;
4462;SDS011;2244;50.200;8.220;2023-04-25T08:35:05;18.60;;;6.60;;
4462;SDS011;2244;50.200;8.220;2023-04-25T08:37:33;15.30;;;6.40;;
4462;SDS011;2244;50.200;8.220;2023-04-25T08:40:00;16.30;;;6.67;;
4462;SDS011;2244;50.200;8.220;2023-04-25T08:42:29;15.70;;;7.30;;
4462;SDS011;2244;50.200;8.220;2023-04-25T08:44:58;17.60;;;7.37;;
4462;SDS011;2244;50.200;8.220;2023-04-25T08:47:26;17.30;;;6.90;;
4462;SDS011;2244;50.200;8.220;2023-04-25T08:49:54;14.87;;;7.27;;
4462;SDS011;2244;50.200;8.220;2023-04-25T08:52:23;16.93;;;6.90;;
4462;SDS011;2244;50.200;8.220;2023-04-25T08:54:51;21.60;;;7.60;;
4462;SDS011;2244;50.200;8.220;2023-04-25T08:57:18;16.10;;;6.57;;
4462;SDS011;2244;50.200;8.220;2023-04-25T08:59:46;18.27;;;7.20;;
4462;SDS011;2244;50.200;8.220;2023-04-25T09:02:14;18.50;;;6.90;;
4462;SDS011;2244;50.200;8.220;2023-04-25T09:04:44;15.57;;;6.53;;
4462;SDS011;2244;50.200;8.220;2023-04-25T09:07:11;15.80;;;5.93;;
4462;SDS011;2244;50.200;8.220;2023-04-25T09:09:40;14.10;;;6.20;;
4462;SDS011;2244;50.200;8.220;2023-04-25T09:12:08;16.50;;;6.50;;
4462;SDS011;2244;50.200;8.220;2023-04-25T09:14:36;13.73;;;5.80;;
4462;SDS011;2244;50.200;8.220;2023-04-25T09:17:03;14.93;;;6.13;;
4462;SDS011;2244;50.200;8.220;2023-04-25T09:19:34;15.67;;;6.00;;
4462;SDS011;2244;50.200;8.220;2023-04-25T09:22:03;13.17;;;5.73;;
4462;SDS011;2244;50.200;8.220;2023-04-25T09:27:07;19.27;;;6.97;;
4462;SDS011;2244;50.200;8.220;2023-04-25T09:29:35;17.93;;;6.37;;
4462;SDS011;2244;50.200;8.220;2023-04-25T09:34:49;21.40;;;6.83;;
4462;SDS011;2244;50.200;8.220;2023-04-25T09:37:17;17.20;;;7.10;;
4462;SDS011;2244;50.200;8.220;2023-04-25T09:39:46;17.27;;;6.97;;
4462;SDS011;2244;50.200;8.220;2023-04-25T09:42:15;16.77;;;6.70;;
4462;SDS011;2244;50.200;8.220;2023-04-25T09:44:43;20.57;;;6.50;;
4462;SDS011;2244;50.200;8.220;2023-04-25T09:47:16;15.83;;;6.57;;
4462;SDS011;2244;50.200;8.220;2023-04-25T09:49:40;23.13;;;6.77;;
4462;SDS011;2244;50.200;8.220;2023-04-25T09:52:09;14.47;;;5.80;;
4462;SDS011;2244;50.200;8.220;2023-04-25T09:54:36;15.73;;;5.60;;
4462;SDS011;2244;50.200;8.220;2023-04-25T09:57:09;15.50;;;5.47;;
4462;SDS011;2244;50.200;8.220;2023-04-25T09:59:33;12.80;;;4.77;;
4462;SDS011;2244;50.200;8.220;2023-04-25T10:02:02;13.00;;;4.57;;
4462;SDS011;2244;50.200;8.220;2023-04-25T10:04:29;15.47;;;4.60;;
4462;SDS011;2244;50.200;8.220;2023-04-25T10:06:59;17.53;;;5.87;;
4462;SDS011;2244;50.200;8.220;2023-04-25T10:09:27;18.27;;;4.70;;
4462;SDS011;2244;50.200;8.220;2023-04-25T10:12:00;14.70;;;4.70;;
4462;SDS011;2244;50.200;8.220;2023-04-25T10:14:28;16.30;;;5.37;;
4462;SDS011;2244;50.200;8.220;2023-04-25T10:17:01;28.67;;;5.73;;
4462;SDS011;2244;50.200;8.220;2023-04-25T10:19:26;19.93;;;5.40;;
4462;SDS011;2244;50.200;8.220;2023-04-25T10:22:02;16.13;;;5.30;;
4462;SDS011;2244;50.200;8.220;2023-04-25T10:24:25;17.53;;;4.60;;
4462;SDS011;2244;50.200;8.220;2023-04-25T10:26:54;15.30;;;5.37;;
4462;SDS011;2244;50.200;8.220;2023-04-25T10:29:24;13.53;;;4.83;;
4462;SDS011;2244;50.200;8.220;2023-04-25T10:31:52;15.97;;;5.10;;
4462;SDS011;2244;50.200;8.220;2023-04-25T10:34:23;15.73;;;4.33;;
4462;SDS011;2244;50.200;8.220;2023-04-25T10:36:50;16.20;;;4.90;;
4462;SDS011;2244;50.200;8.220;2023-04-25T10:39:24;15.83;;;4.60;;
4462;SDS011;2244;50.200;8.220;2023-04-25T10:41:52;16.10;;;4.80;;
4462;SDS011;2244;50.200;8.220;2023-04-25T10:44:21;16.70;;;4.67;;
4462;SDS011;2244;50.200;8.220;2023-04-25T10:46:48;17.00;;;4.10;;
4462;SDS011;2244;50.200;8.220;2023-04-25T10:49:34;13.83;;;4.17;;
4462;SDS011;2244;50.200;8.220;2023-04-25T10:52:13;12.37;;;3.83;;
4462;SDS011;2244;50.200;8.220;2023-04-25T10:54:42;21.23;;;3.93;;
4462;SDS011;2244;50.200;8.220;2023-04-25T10:57:25;15.97;;;3.63;;
4462;SDS011;2244;50.200;8.220;2023-04-25T10:59:38;16.40;;;4.13;;
4462;SDS011;2244;50.200;8.220;2023-04-25T11:02:11;15.20;;;4.33;;
4462;SDS011;2244;50.200;8.220;2023-04-25T11:04:36;12.13;;;3.33;;
4462;SDS011;2244;50.200;8.220;2023-04-25T11:07:26;18.10;;;4.27;;
4462;SDS011;2244;50.200;8.220;2023-04-25T11:09:52;20.47;;;4.47;;
4462;SDS011;2244;50.200;8.220;2023-04-25T11:12:20;14.97;;;4.23;;
4462;SDS011;2244;50.200;8.220;2023-04-25T11:14:47;23.53;;;4.77;;
4462;SDS011;2244;50.200;8.220;2023-04-25T11:17:15;16.80;;;3.80;;
4462;SDS011;2244;50.200;8.220;2023-04-25T11:19:43;13.17;;;3.93;;
4462;SDS011;2244;50.200;8.220;2023-04-25T11:22:10;15.43;;;3.83;;
4462;SDS011;2244;50.200;8.220;2023-04-25T11:24:39;14.87;;;4.20;;
4462;SDS011;2244;50.200;8.220;2023-04-25T11:27:06;15.50;;;4.13;;
4462;SDS011;2244;50.200;8.220;2023-04-25T11:29:34;12.43;;;3.70;;
4462;SDS011;2244;50.200;8.220;2023-04-25T11:32:02;17.67;;;4.90;;
4462;SDS011;2244;50.200;8.220;2023-04-25T11:34:30;14.93;;;4.13;;
4462;SDS011;2244;50.200;8.220;2023-04-25T11:36:59;13.93;;;4.13;;
4462;SDS011;2244;50.200;8.220;2023-04-25T11:39:27;21.03;;;5.07;;
4462;SDS011;2244;50.200;8.220;2023-04-25T11:41:54;15.07;;;4.03;;
4462;SDS011;2244;50.200;8.220;2023-04-25T11:44:22;11.63;;;3.40;;
4462;SDS011;2244;50.200;8.220;2023-04-25T11:46:49;18.13;;;3.80;;
4462;SDS011;2244;50.200;8.220;2023-04-25T11:49:17;15.60;;;3.40;;
4462;SDS011;2244;50.200;8.220;2023-04-25T11:51:45;13.30;;;3.00;;
4462;SDS011;2244;50.200;8.220;2023-04-25T11:54:13;13.23;;;3.80;;
4462;SDS011;2244;50.200;8.220;2023-04-25T11:56:41;17.30;;;4.03;;
4462;SDS011;2244;50.200;8.220;2023-04-25T11:59:08;15.83;;;3.80;;
4462;SDS011;2244;50.200;8.220;2023-04-25T12:01:37;14.90;;;3.43;;
4462;SDS011;2244;50.200;8.220;2023-04-25T12:04:12;15.23;;;3.53;;
4462;SDS011;2244;50.200;8.220;2023-04-25T12:06:41;12.03;;;3.70;;
4462;SDS011;2244;50.200;8.220;2023-04-25T12:09:09;17.67;;;4.03;;
4462;SDS011;2244;50.200;8.220;2023-04-25T12:11:40;14.10;;;3.73;;
4462;SDS011;2244;50.200;8.220;2023-04-25T12:14:09;15.53;;;4.13;;
4462;SDS011;2244;50.200;8.220;2023-04-25T12:16:44;13.97;;;3.77;;
4462;SDS011;2244;50.200;8.220;2023-04-25T12:19:18;15.50;;;3.87;;
4462;SDS011;2244;50.200;8.220;2023-04-25T12:21:46;17.27;;;4.37;;
4462;SDS011;2244;50.200;8.220;2023-04-25T12:24:17;13.90;;;4.10;;
4462;SDS011;2244;50.200;8.220;2023-04-25T12:26:46;14.50;;;4.47;;
4462;SDS011;2244;50.200;8.220;2023-04-25T12:29:17;15.00;;;4.00;;
4462;SDS011;2244;50.200;8.220;2023-04-25T12:31:44;16.50;;;3.90;;
4462;SDS011;2244;50.200;8.220;2023-04-25T12:34:12;11.60;;;3.70;;
4462;SDS011;2244;50.200;8.220;2023-04-25T12:36:39;12.30;;;3.30;;
4462;SDS011;2244;50.200;8.220;2023-04-25T12:39:07;12.63;;;3.50;;
4462;SDS011;2244;50.200;8.220;2023-04-25T12:41:34;15.83;;;4.03;;
4462;SDS011;2244;50.200;8.220;2023-04-25T12:44:02;15.30;;;3.73;;
4462;SDS011;2244;50.200;8.220;2023-04-25T12:46:29;13.93;;;4.40;;
4462;SDS011;2244;50.200;8.220;2023-04-25T12:51:22;14.67;;;4.40;;
4462;SDS011;2244;50.200;8.220;2023-04-25T12:53:51;14.30;;;4.67;;
4462;SDS011;2244;50.200;8.220;2023-04-25T12:56:18;17.50;;;4.27;;
4462;SDS011;2244;50.200;8.220;2023-04-25T12:58:47;14.50;;;4.27;;
4462;SDS011;2244;50.200;8.220;2023-04-25T13:01:15;16.20;;;3.50;;
4462;SDS011;2244;50.200;8.220;2023-04-25T13:03:43;16.80;;;3.80;;
4462;SDS011;2244;50.200;8.220;2023-04-25T13:06:11;17.80;;;3.90;;
4462;SDS011;2244;50.200;8.220;2023-04-25T13:08:39;17.50;;;4.30;;
4462;SDS011;2244;50.200;8.220;2023-04-25T13:11:07;12.90;;;3.90;;
4462;SDS011;2244;50.200;8.220;2023-04-25T13:13:35;18.30;;;4.33;;
4462;SDS011;2244;50.200;8.220;2023-04-25T13:16:08;13.60;;;3.70;;
4462;SDS011;2244;50.200;8.220;2023-04-25T13:18:32;14.80;;;3.87;;
4462;SDS011;2244;50.200;8.220;2023-04-25T13:20:59;14.27;;;3.87;;
4462;SDS011;2244;50.200;8.220;2023-04-25T13:23:28;21.03;;;4.70;;
4462;SDS011;2244;50.200;8.220;2023-04-25T13:25:55;13.60;;;3.40;;
4462;SDS011;2244;50.200;8.220;2023-04-25T13:28:25;14.10;;;4.47;;
4462;SDS011;2244;50.200;8.220;2023-04-25T13:30:52;17.20;;;3.63;;
4462;SDS011;2244;50.200;8.220;2023-04-25T13:33:20;13.63;;;4.23;;
4462;SDS011;2244;50.200;8.220;2023-04-25T13:35:48;16.33;;;4.07;;
4462;SDS011;2244;50.200;8.220;2023-04-25T13:38:17;15.67;;;4.13;;
4462;SDS011;2244;50.200;8.220;2023-04-25T13:40:45;17.03;;;3.60;;
4462;SDS011;2244;50.200;8.220;2023-04-25T13:43:12;17.30;;;3.73;;
4462;SDS011;2244;50.200;8.220;2023-04-25T13:45:40;12.13;;;3.30;;
4462;SDS011;2244;50.200;8.220;2023-04-25T13:48:08;12.83;;;3.17;;
4462;SDS011;2244;50.200;8.220;2023-04-25T13:50:35;12.90;;;3.20;;
4462;SDS011;2244;50.200;8.220;2023-04-25T13:53:02;15.10;;;3.07;;
4462;SDS011;2244;50.200;8.220;2023-04-25T13:55:30;9.87;;;2.73;;
4462;SDS011;2244;50.200;8.220;2023-04-25T13:57:57;10.87;;;3.00;;
4462;SDS011;2244;50.200;8.220;2023-04-25T14:00:24;12.43;;;3.30;;
4462;SDS011;2244;50.200;8.220;2023-04-25T14:02:52;14.13;;;2.80;;
4462;SDS011;2244;50.200;8.220;2023-04-25T14:05:20;10.37;;;2.90;;
4462;SDS011;2244;50.200;8.220;2023-04-25T14:07:47;14.90;;;2.87;;
4462;SDS011;2244;50.200;8.220;2023-04-25T14:10:14;13.17;;;2.70;;
4462;SDS011;2244;50.200;8.220;2023-04-25T14:12:42;12.10;;;3.30;;
4462;SDS011;2244;50.200;8.220;2023-04-25T14:15:09;14.00;;;3.30;;
4462;SDS011;2244;50.200;8.220;2023-04-25T14:17:37;12.13;;;2.40;;
4462;SDS011;2244;50.200;8.220;2023-04-25T14:20:05;13.33;;;2.70;;
4462;SDS011;2244;50.200;8.220;2023-04-25T14:22:34;10.60;;;2.57;;
4462;SDS011;2244;50.200;8.220;2023-04-25T14:25:01;13.60;;;3.20;;
4462;SDS011;2244;50.200;8.220;2023-04-25T14:27:29;14.93;;;2.63;;
4462;SDS011;2244;50.200;8.220;2023-04-25T14:29:57;14.57;;;3.57;;
4462;SDS011;2244;50.200;8.220;2023-04-25T14:32:24;19.40;;;3.20;;
4462;SDS011;2244;50.200;8.220;2023-04-25T14:34:52;12.23;;;2.83;;
4462;SDS011;2244;50.200;8.220;2023-04-25T14:37:19;15.00;;;3.03;;
4462;SDS011;2244;50.200;8.220;2023-04-25T14:39:47;11.30;;;2.90;;
4462;SDS011;2244;50.200;8.220;2023-04-25T14:42:14;12.33;;;3.93;;
4462;SDS011;2244;50.200;8.220;2023-04-25T14:44:41;14.13;;;3.43;;
4462;SDS011;2244;50.200;8.220;2023-04-25T14:47:09;14.93;;;3.77;;
4462;SDS011;2244;50.200;8.220;2023-04-25T14:49:36;13.37;;;3.33;;
4462;SDS011;2244;50.200;8.220;2023-04-25T14:52:04;13.57;;;3.00;;
4462;SDS011;2244;50.200;8.220;2023-04-25T14:54:31;14.10;;;2.90;;
4462;SDS011;2244;50.200;8.220;2023-04-25T14:56:58;17.00;;;3.50;;
4462;SDS011;2244;50.200;8.220;2023-04-25T14:59:27;14.00;;;3.10;;
4462;SDS011;2244;50.200;8.220;2023-04-25T15:01:54;15.03;;;3.17;;
4462;SDS011;2244;50.200;8.220;2023-04-25T15:04:23;17.60;;;3.30;;
4462;SDS011;2244;50.200;8.220;2023-04-25T15:06:51;16.50;;;3.07;;
4462;SDS011;2244;50.200;8.220;2023-04-25T15:09:18;11.60;;;2.60;;